<?xml version='1.0' encoding='UTF-8'?>
<gpx xmlns="http://www.topografix.com/GPX/1/1" creator="www.balnam.be" version="1.1" xmlns:xsi="http://www.w3.org/2001/XMLSchema-instance" xsi:schemaLocation="http://www.topografix.com/GPX/1/1 http://www.topografix.com/GPX/1/1/gpx.xsd">
<trk>
<name>hmtmt55</name>
<cmt>q</cmt>
<desc>Montigny-le-Tilleul Sentier n°55 Sentier du hameau du Warchais au Champ de St-Anne</desc>
<link href="https://chemins.be/montignyletilleul/sentier/55"/><trkseg>
<trkpt lat="50.374961" lon="4.362636"><time>2026-05-02T22:32:51Z</time></trkpt>
<trkpt lat="50.375075" lon="4.367149"><time>2026-05-02T22:42:51Z</time></trkpt>
<trkpt lat="50.375005" lon="4.367358"><time>2026-05-02T22:52:51Z</time></trkpt>
<trkpt lat="50.374884" lon="4.367766"><time>2026-05-02T23:02:51Z</time></trkpt>
<trkpt lat="50.374729" lon="4.368044"><time>2026-05-02T23:12:51Z</time></trkpt>
</trkseg></trk>
<trk>
<name>hmtmt55</name>
<cmt>r</cmt>
<desc>Montigny-le-Tilleul Sentier n°55 Sentier du hameau du Warchais au Champ de St-Anne</desc>
<link href="https://chemins.be/montignyletilleul/sentier/55"/><trkseg>
<trkpt lat="50.374729" lon="4.368044"><time>2026-05-02T23:12:51Z</time></trkpt>
<trkpt lat="50.374599" lon="4.367827"><time>2026-05-02T23:22:51Z</time></trkpt>
<trkpt lat="50.374251" lon="4.368248"><time>2026-05-02T23:32:51Z</time></trkpt>
<trkpt lat="50.373975" lon="4.368817"><time>2026-05-02T23:42:51Z</time></trkpt>
<trkpt lat="50.373396" lon="4.369567"><time>2026-05-02T23:52:51Z</time></trkpt>
</trkseg></trk>
<trk>
<name>hmtmt55</name>
<cmt>v</cmt>
<desc>Montigny-le-Tilleul Sentier n°55 Sentier du hameau du Warchais au Champ de St-Anne</desc>
<link href="https://chemins.be/montignyletilleul/sentier/55"/><trkseg>
<trkpt lat="50.373396" lon="4.369567"><time>2026-05-02T23:52:51Z</time></trkpt>
<trkpt lat="50.373219" lon="4.370713"><time>2026-05-03T00:02:51Z</time></trkpt>
</trkseg></trk>
<trk>
<name>hmtmt55</name>
<cmt>q</cmt>
<desc>Montigny-le-Tilleul Sentier n°55 Sentier du hameau du Warchais au Champ de St-Anne</desc>
<link href="https://chemins.be/montignyletilleul/sentier/55"/><trkseg>
<trkpt lat="50.373219" lon="4.370713"><time>2026-05-03T00:02:51Z</time></trkpt>
<trkpt lat="50.373129" lon="4.371669"><time>2026-05-03T00:12:51Z</time></trkpt>
</trkseg></trk>
<trk>
<name>hmtmt55</name>
<cmt>v</cmt>
<desc>Montigny-le-Tilleul Sentier n°55 Sentier du hameau du Warchais au Champ de St-Anne</desc>
<link href="https://chemins.be/montignyletilleul/sentier/55"/><trkseg>
<trkpt lat="50.373129" lon="4.371669"><time>2026-05-03T00:12:51Z</time></trkpt>
<trkpt lat="50.373228" lon="4.371964"><time>2026-05-03T00:22:51Z</time></trkpt>
<trkpt lat="50.373426" lon="4.372513"><time>2026-05-03T00:32:51Z</time></trkpt>
</trkseg></trk>
<trk>
<name>hmtmt55</name>
<cmt>s</cmt>
<desc>Montigny-le-Tilleul Sentier n°55 Sentier du hameau du Warchais au Champ de St-Anne</desc>
<link href="https://chemins.be/montignyletilleul/sentier/55"/><trkseg>
<trkpt lat="50.373426" lon="4.372513"><time>2026-05-03T00:32:51Z</time></trkpt>
<trkpt lat="50.373794" lon="4.374270"><time>2026-05-03T00:42:51Z</time></trkpt>
</trkseg></trk>
<trk>
<name>hmtmt55</name>
<cmt>v</cmt>
<desc>Montigny-le-Tilleul Sentier n°55 Sentier du hameau du Warchais au Champ de St-Anne</desc>
<link href="https://chemins.be/montignyletilleul/sentier/55"/><trkseg>
<trkpt lat="50.373794" lon="4.374270"><time>2026-05-03T00:42:51Z</time></trkpt>
<trkpt lat="50.373983" lon="4.374902"><time>2026-05-03T00:52:51Z</time></trkpt>
<trkpt lat="50.374010" lon="4.376519"><time>2026-05-03T01:02:51Z</time></trkpt>
<trkpt lat="50.374387" lon="4.377560"><time>2026-05-03T01:12:51Z</time></trkpt>
<trkpt lat="50.374657" lon="4.377770"><time>2026-05-03T01:22:51Z</time></trkpt>
<trkpt lat="50.375213" lon="4.378941"><time>2026-05-03T01:32:51Z</time></trkpt>
<trkpt lat="50.375411" lon="4.379531"><time>2026-05-03T01:42:51Z</time></trkpt>
<trkpt lat="50.375496" lon="4.379971"><time>2026-05-03T01:52:51Z</time></trkpt>
<trkpt lat="50.375856" lon="4.380683"><time>2026-05-03T02:02:51Z</time></trkpt>
<trkpt lat="50.376023" lon="4.381426"><time>2026-05-03T02:12:51Z</time></trkpt>
</trkseg>
</trk>
</gpx>